Last 24 Hour KALB Observations

Last 24 hours of surface weather observations from the Albany County Airport. Observations taken by the National Weather Service.


		
KALB 211951Z 16016G31KT 10SM FEW043 FEW065 FEW200 30/21 A2952 RMK AO2 PK WND
 13031/1942 SLP994 CB DSNT NW MOV NE T03000211=
KALB 212051Z 16017G26KT 10SM FEW040 FEW065 SCT200 29/21 A2952 RMK AO2 PK WND
 15029/2037 SLP996 CB DSNT N MOV NE T02940211 55019=
KALB 212151Z 15017G24KT 10SM FEW040 FEW065 SCT200 29/21 A2950 RMK AO2 PK WND
 16029/2052 SLP987 CB DSNT NE MOV E T02890206=
KALB 212251Z 16012G22KT 10SM FEW040 FEW065 BKN170 BKN250 28/21 A2951 RMK AO2 PK
 WND 14026/2153 SLP990 T02830206=
KALB 212351Z 15011KT 10SM FEW040 FEW065 SCT110 BKN160 28/21 A2951 RMK AO2
 SLP992 T02780211 10300 20278 55003=
KALB 220051Z 16010G21KT 10SM FEW045 FEW075 SCT110 BKN230 27/21 A2951 RMK AO2
 LTG DSNT W-N SLP992 T02720211=
KALB 220134Z 23024G39KT 2SM R01/4500VP6000FT -TSRA FEW035 SCT060CB SCT090
 OVC230 24/21 A2959 RMK AO2 PK WND 24039/0132 LTG DSNT SW-N RAB04 TSB10 PRESRR
 FRQ LTGICCG N-OHD-S TS N-OHD-S MOV NE
KALB 220134Z 23024G39KT 2SM R01/4500VP6000FT -TSRA FEW035 SCT060CB SCT090
 OVC230 24/21 A2959=
KALB 220144Z 23013G29KT 3/4SM R01/P6000FT +TSRA BR FEW019 BKN050CB OVC090 21/20
 A2958=
KALB 220144Z 23013G29KT 3/4SM R01/P6000FT +TSRA BR FEW019 BKN050CB OVC090 21/20
 A2958 RMK AO2 PK WND 24039/0132 WSHFT 0124 LTG DSNT ALQDS RAB04 TSB10 FRQ
 LTGICCG ALQDS TS ALQDS MOV NE
KALB 220134Z COR 23024G39KT 2SM R01/4500VP6000FT -TSRA BR FEW035 SCT060CB
 SCT090 OVC230 24/21 A2959 RMK AO2 PK WND 24039/0132 LTG DSNT SW-N RAB04 TSB10
 PRESRR FRQ LTGICCG N-OHD-S TS
KALB 220134Z COR 23024G39KT 2SM R01/4500VP6000FT -TSRA BR FEW035 SCT060CB
 SCT090 OVC230 24/21 A2959=
KALB 220151Z 23009G22KT 4SM -TSRA BR SCT025 SCT055CB OVC090 21/20 A2957 RMK AO2
 PK WND 24039/0132 WSHFT 0124 LTG DSNT ALQDS RAB04 TSB10 SLP011 CONS LTGICCG VC
 NE-SE-S TS VC NE-SE-S MOV
KALB 220251Z 12003KT 10SM TS FEW025 SCT070 OVC090 21/21 A2961 RMK AO2 LTG DSNT
 NE-SE RAE49 SLP025 FRQ LTGICCG DSNT NE-SE TS DSNT NE-SE MOV NE P0003 60018
 T02060206 53033=
KALB 220256Z 12003KT 10SM FEW025 SCT070 OVC090 21/21 A2961 RMK AO2 LTG DSNT
 NE-SE TSE56 FRQ LTGICCG DSNT NE-SE CB DSNT NE-SE MOV NE T02060206=
KALB 220256Z 12003KT 10SM FEW025 SCT070 OVC090 21/21 A2961=
KALB 220351Z 14004KT 10SM SCT039 BKN046 OVC060 21/21 A2962 RMK AO2 TSE0256
 SLP027 T02060206=
KALB 220451Z 15003KT 10SM FEW005 FEW050 SCT065 OVC190 20/20 A2960 RMK AO2
 SLP022 T02000200 403000200=
KALB 220527Z 16004KT 10SM BKN006 BKN035 OVC190 20/20 A2960 RMK AO2 T02000200=
KALB 220527Z 16004KT 10SM BKN006 BKN035 OVC190 20/20 A2960=
KALB 220551Z 00000KT 10SM SCT006 SCT033 SCT075 BKN190 20/20 A2959 RMK AO2
 SLP019 60018 T02000200 10278 20200 58006=
KALB 220625Z 24004KT 10SM FEW005 BKN021 OVC039 20/20 A2960 RMK AO2 T02000200=
KALB 220625Z 24004KT 10SM FEW005 BKN021 OVC039 20/20 A2960=
KALB 220651Z 21007KT 10SM SCT024 SCT039 BKN065 20/20 A2961 RMK AO2 SLP025
 T02000200=
KALB 220751Z 25008KT 10SM FEW030 SCT080 BKN240 18/17 A2964 RMK AO2 SLP034
 T01830172=
KALB 220851Z 28008KT 10SM OVC080 17/15 A2965 RMK AO2 SLP038 T01720150 51019=
KALB 220951Z VRB03KT 10SM SCT065 OVC080 17/13 A2967 RMK AO2 SLP047 T01670133=
KALB 221051Z 30011KT 10SM FEW030 OVC070 16/13 A2971 RMK AO2 SLP058 T01610133=
KALB 221151Z 27010G17KT 7SM -RA SCT030 BKN060 OVC080 15/13 A2974 RMK AO2 RAB45
 SLP068 P0001 60001 70019 T01500133 10200 20150 53029=
KALB 221251Z 27006KT 10SM SCT030 BKN075 OVC090 15/14 A2975 RMK AO2 RAE43 SLP073
 P0004 T01500144=
KALB 221351Z 28008KT 10SM -RA FEW031 SCT046 OVC070 16/14 A2976 RMK AO2 RAB28
 SLP078 P0001 T01560139=
KALB 221451Z 29011KT 10SM -RA FEW019 BKN085 OVC110 16/14 A2977 RMK AO2 SLP080
 P0000 60005 T01610139 51011=
KALB 221551Z 27008KT 9SM -RA FEW030 BKN060 OVC100 15/14 A2978 RMK AO2 SLP085
 P0000 T01500139=
KALB 221641Z 29007KT 7SM -RA BKN018 BKN050 OVC100 14/14 A2979 RMK AO2 P0003
 T01440139=
KALB 221641Z 29007KT 7SM -RA BKN018 BKN050 OVC100 14/14 A2979=
KALB 221651Z 29007KT 8SM -RA BKN018 BKN050 OVC100 14/14 A2979 RMK AO2 SLP087
 P0004 T01440139=
KALB 221751Z 28006KT 10SM -RA BKN022 BKN050 OVC100 14/13 A2978 RMK AO2 SLP083
 P0000 60009 T01440133 10161 20144 50003=
KALB 221849Z 28011KT 10SM SCT022 BKN035 OVC055 16/13 A2977 RMK AO2 RAE46 P0000=
KALB 221849Z 28011KT 10SM SCT022 BKN035 OVC055 16/13 A2977=
KALB 221851Z 28013G18KT 10SM SCT022 BKN035 OVC055 16/13 A2977 RMK AO2 RAE46
 SLP080 P0000 T01560128=
KALB 221951Z 27011KT 10SM FEW026 SCT032 BKN041 OVC140 16/13 A2978 RMK AO2
 SLP082 T01560128=